createdAt,value
2018-08-30T00:00:08.955Z,39.30
2018-08-30T00:02:37.592Z,40.93
2018-08-30T00:05:06.258Z,39.97
2018-08-30T00:07:35.013Z,36.90
2018-08-30T00:10:03.659Z,38.80
2018-08-30T00:12:32.315Z,40.53
2018-08-30T00:15:00.959Z,38.60
2018-08-30T00:17:29.605Z,38.03
2018-08-30T00:19:58.289Z,41.43
2018-08-30T00:22:27.349Z,41.40
2018-08-30T00:24:56.220Z,40.20
2018-08-30T00:27:24.869Z,38.10
2018-08-30T00:29:53.633Z,33.13
2018-08-30T00:32:22.279Z,27.63
2018-08-30T00:34:50.938Z,25.03
2018-08-30T00:37:19.891Z,22.53
2018-08-30T00:39:48.642Z,21.10
2018-08-30T00:42:17.298Z,21.30
2018-08-30T00:44:46.005Z,18.03
2018-08-30T00:47:21.448Z,17.13
2018-08-30T00:49:51.073Z,17.33
2018-08-30T00:52:20.174Z,16.90
2018-08-30T00:54:48.826Z,18.23
2018-08-30T00:57:17.894Z,17.73
2018-08-30T00:59:46.894Z,15.70
2018-08-30T01:02:15.570Z,14.70
2018-08-30T01:04:44.249Z,13.00
2018-08-30T01:07:12.930Z,12.07
2018-08-30T01:09:41.598Z,11.43
2018-08-30T01:12:10.258Z,9.93
2018-08-30T01:14:38.894Z,10.83
2018-08-30T01:17:07.617Z,11.23
2018-08-30T01:19:36.249Z,10.13
2018-08-30T01:22:04.898Z,9.50
2018-08-30T01:24:33.537Z,12.07
2018-08-30T01:27:02.189Z,11.33
2018-08-30T01:29:30.837Z,11.67
2018-08-30T01:31:59.494Z,12.10
2018-08-30T01:34:28.145Z,12.47
2018-08-30T01:36:56.801Z,12.83
2018-08-30T01:39:25.454Z,13.60
2018-08-30T01:41:54.213Z,14.23
2018-08-30T01:44:22.861Z,15.47
2018-08-30T01:46:51.530Z,15.07
2018-08-30T01:49:20.197Z,15.80
2018-08-30T01:51:48.847Z,16.47
2018-08-30T01:54:17.490Z,18.47
2018-08-30T01:56:46.158Z,19.47
2018-08-30T01:59:14.797Z,19.03
2018-08-30T02:01:43.449Z,19.53
2018-08-30T02:04:12.090Z,20.10
2018-08-30T02:06:40.744Z,19.60
2018-08-30T02:09:09.393Z,21.20
2018-08-30T02:11:38.040Z,20.90
2018-08-30T02:14:06.689Z,22.10
2018-08-30T02:16:35.330Z,21.13
2018-08-30T02:19:03.989Z,23.63
2018-08-30T02:21:32.629Z,24.07
2018-08-30T02:24:01.269Z,25.60
2018-08-30T02:26:29.931Z,23.80
2018-08-30T02:28:58.570Z,23.77
2018-08-30T02:31:27.213Z,24.80
2018-08-30T02:33:55.881Z,25.07
2018-08-30T02:36:24.527Z,25.27
2018-08-30T02:38:53.177Z,25.63
2018-08-30T02:41:21.865Z,26.40
2018-08-30T02:43:50.546Z,26.50
2018-08-30T02:46:19.186Z,26.80
2018-08-30T02:48:47.849Z,28.10
2018-08-30T02:51:16.737Z,27.70
2018-08-30T02:53:45.400Z,27.93
2018-08-30T02:56:14.030Z,27.87
2018-08-30T02:58:42.698Z,27.47
2018-08-30T03:01:11.358Z,26.77
2018-08-30T03:03:40.010Z,27.77
2018-08-30T03:06:08.673Z,28.80
2018-08-30T03:08:37.346Z,28.70
2018-08-30T03:11:06.079Z,29.37
2018-08-30T03:13:34.722Z,28.67
2018-08-30T03:16:03.382Z,27.83
2018-08-30T03:18:32.009Z,28.47
2018-08-30T03:21:00.746Z,28.77
2018-08-30T03:23:29.398Z,29.50
2018-08-30T03:25:58.053Z,27.70
2018-08-30T03:28:26.692Z,29.73
2018-08-30T03:30:55.555Z,30.37
2018-08-30T03:33:24.078Z,29.23
2018-08-30T03:35:52.726Z,28.17
2018-08-30T03:38:21.403Z,31.00
2018-08-30T03:40:50.045Z,31.50
2018-08-30T03:43:18.709Z,30.87
2018-08-30T03:45:47.349Z,31.80
2018-08-30T03:48:16.026Z,29.70
2018-08-30T03:50:44.765Z,30.13
2018-08-30T03:53:13.406Z,29.67
2018-08-30T03:55:42.101Z,30.90
2018-08-30T03:58:10.737Z,31.93
2018-08-30T04:00:39.386Z,33.43
2018-08-30T04:03:08.030Z,31.80
2018-08-30T04:05:36.674Z,33.27
2018-08-30T04:08:05.642Z,30.97
2018-08-30T04:10:34.289Z,32.40
2018-08-30T04:13:02.926Z,33.60
2018-08-30T04:15:31.583Z,32.47
2018-08-30T04:18:00.245Z,32.97
2018-08-30T04:20:28.907Z,31.70
2018-08-30T04:22:57.550Z,33.57
2018-08-30T04:25:26.209Z,34.10
2018-08-30T04:27:54.869Z,31.20
2018-08-30T04:30:23.570Z,33.93
2018-08-30T04:32:52.229Z,34.30
2018-08-30T04:35:20.873Z,32.70
2018-08-30T04:37:49.517Z,32.57
2018-08-30T04:40:18.158Z,32.63
2018-08-30T04:42:46.858Z,33.73
2018-08-30T04:45:15.476Z,34.03
2018-08-30T04:47:44.133Z,34.70
2018-08-30T04:50:12.840Z,34.73
2018-08-30T04:52:41.438Z,35.97
2018-08-30T04:55:10.093Z,37.63
2018-08-30T04:57:38.933Z,36.20
2018-08-30T05:00:07.593Z,36.60
2018-08-30T05:02:36.237Z,38.40
2018-08-30T05:05:04.902Z,36.43
2018-08-30T05:07:33.563Z,34.37
2018-08-30T05:10:02.223Z,38.63
2018-08-30T05:12:30.848Z,38.60
2018-08-30T05:14:59.501Z,39.27
2018-08-30T05:17:28.158Z,36.17
2018-08-30T05:19:56.812Z,37.23
2018-08-30T05:22:25.477Z,37.27
2018-08-30T05:24:54.137Z,38.37
2018-08-30T05:27:22.774Z,37.50
2018-08-30T05:29:51.433Z,36.80
2018-08-30T05:32:20.074Z,36.77
2018-08-30T05:34:48.755Z,36.17
2018-08-30T05:37:17.386Z,34.80
2018-08-30T05:39:46.031Z,32.60
2018-08-30T05:42:14.769Z,34.80
2018-08-30T05:44:43.506Z,34.17
2018-08-30T05:47:12.062Z,33.07
2018-08-30T05:49:40.731Z,32.00
2018-08-30T05:52:09.362Z,31.23
2018-08-30T05:54:38.031Z,31.90
2018-08-30T05:57:06.700Z,33.20
2018-08-30T05:59:35.345Z,29.87
2018-08-30T06:02:03.987Z,32.00
2018-08-30T06:04:32.683Z,28.63
2018-08-30T06:07:01.362Z,30.63
2018-08-30T06:09:33.825Z,28.50
2018-08-30T06:12:02.565Z,30.20
2018-08-30T06:14:31.209Z,31.00
2018-08-30T06:16:59.874Z,29.60
2018-08-30T06:19:28.542Z,27.93
2018-08-30T06:21:57.201Z,25.23
2018-08-30T06:24:25.848Z,27.03
2018-08-30T06:26:54.590Z,25.83
2018-08-30T06:29:23.249Z,24.97
2018-08-30T06:31:51.826Z,25.20
2018-08-30T06:34:20.478Z,24.27
2018-08-30T06:36:49.353Z,22.40
2018-08-30T06:39:17.970Z,23.30
2018-08-30T06:41:46.619Z,23.70
2018-08-30T06:44:15.322Z,22.20
2018-08-30T06:46:44.011Z,21.73
2018-08-30T06:49:13.007Z,21.93
2018-08-30T06:51:42.138Z,21.17
2018-08-30T06:54:10.801Z,20.43
2018-08-30T06:56:39.649Z,21.60
2018-08-30T06:59:08.359Z,19.60
2018-08-30T07:01:37.354Z,19.77
2018-08-30T07:04:06.427Z,19.37
2018-08-30T07:06:35.069Z,18.27
2018-08-30T07:09:05.047Z,17.77
2018-08-30T07:11:33.685Z,18.53
2018-08-30T07:14:02.333Z,17.27
2018-08-30T07:16:30.977Z,16.30
2018-08-30T07:18:59.778Z,16.20
2018-08-30T07:21:28.526Z,14.37
2018-08-30T07:23:57.367Z,14.97
2018-08-30T07:26:26.030Z,16.17
2018-08-30T07:28:54.885Z,15.67
2018-08-30T07:31:23.537Z,14.30
2018-08-30T07:33:52.186Z,15.20
2018-08-30T07:36:20.843Z,15.13
2018-08-30T07:38:49.534Z,13.50
2018-08-30T07:41:18.181Z,14.30
2018-08-30T07:43:46.843Z,15.80
2018-08-30T07:46:15.507Z,12.70
2018-08-30T07:48:44.166Z,16.13
2018-08-30T07:51:13.085Z,12.60
2018-08-30T07:53:41.737Z,11.97
2018-08-30T07:56:10.533Z,11.50
2018-08-30T07:58:39.179Z,11.17
2018-08-30T08:01:07.834Z,11.63
2018-08-30T08:03:36.597Z,11.00
2018-08-30T08:06:05.323Z,11.17
2018-08-30T08:08:33.953Z,11.40
2018-08-30T08:11:02.594Z,10.70
2018-08-30T08:13:31.253Z,10.87
2018-08-30T08:15:59.897Z,11.00
2018-08-30T08:18:28.553Z,9.20
2018-08-30T08:20:57.202Z,10.07
2018-08-30T08:23:25.857Z,9.50
2018-08-30T08:25:54.531Z,8.73
2018-08-30T08:28:23.149Z,8.07
2018-08-30T08:30:52.166Z,8.37
2018-08-30T08:33:20.849Z,8.50
2018-08-30T08:35:49.497Z,8.60
2018-08-30T08:38:24.621Z,7.33
2018-08-30T08:40:53.345Z,7.73
2018-08-30T08:43:21.985Z,8.50
2018-08-30T08:45:50.687Z,7.53
2018-08-30T08:48:19.354Z,7.73
2018-08-30T08:50:48.322Z,8.50
2018-08-30T08:53:16.985Z,7.70
2018-08-30T08:55:45.659Z,7.00
2018-08-30T08:58:14.345Z,6.90
2018-08-30T09:00:43.053Z,6.07
2018-08-30T09:03:11.704Z,6.10
2018-08-30T09:05:40.377Z,6.33
2018-08-30T09:08:09.015Z,6.27
2018-08-30T09:10:37.663Z,5.50
2018-08-30T09:13:06.316Z,6.50
2018-08-30T09:15:34.977Z,7.13
2018-08-30T09:18:03.610Z,6.37
2018-08-30T09:20:32.270Z,6.17
2018-08-30T09:23:00.907Z,6.90
2018-08-30T09:25:29.556Z,6.30
2018-08-30T09:27:58.204Z,6.30
2018-08-30T09:30:26.941Z,6.07
2018-08-30T09:32:55.609Z,6.10
2018-08-30T09:35:24.261Z,7.10
2018-08-30T09:37:52.913Z,5.90
2018-08-30T09:40:21.565Z,6.00
2018-08-30T09:42:50.209Z,5.23
2018-08-30T09:45:18.853Z,5.80
2018-08-30T09:47:47.526Z,6.40
2018-08-30T09:50:16.185Z,5.53
2018-08-30T09:52:44.846Z,5.40
2018-08-30T09:55:13.500Z,5.63
2018-08-30T09:57:42.300Z,5.10
2018-08-30T10:00:13.537Z,5.43
2018-08-30T10:02:47.634Z,6.43
2018-08-30T10:05:16.340Z,5.50
2018-08-30T10:07:45.189Z,5.13
2018-08-30T10:10:13.878Z,5.70
2018-08-30T10:12:42.522Z,5.03
2018-08-30T10:15:11.369Z,5.60
2018-08-30T10:17:40.022Z,5.27
2018-08-30T10:20:08.657Z,5.90
2018-08-30T10:22:37.297Z,5.50
2018-08-30T10:25:06.062Z,5.60
2018-08-30T10:27:34.741Z,5.10
2018-08-30T10:30:03.481Z,5.57
2018-08-30T10:32:32.137Z,5.80
2018-08-30T10:35:00.763Z,5.20
2018-08-30T10:37:29.416Z,5.47
2018-08-30T10:39:58.053Z,5.43
2018-08-30T10:43:29.900Z,5.63
2018-08-30T10:45:58.536Z,4.87
2018-08-30T10:48:27.181Z,4.27
2018-08-30T10:50:55.829Z,4.57
2018-08-30T10:53:24.957Z,5.10
2018-08-30T10:55:53.858Z,4.13
2018-08-30T10:58:23.089Z,4.60
2018-08-30T11:00:51.741Z,5.03
2018-08-30T11:03:20.389Z,4.80
2018-08-30T11:05:49.062Z,4.73
2018-08-30T11:08:17.717Z,4.20
2018-08-30T11:10:46.354Z,4.10
2018-08-30T11:13:15.047Z,4.43
2018-08-30T11:15:43.641Z,4.80
2018-08-30T11:18:12.295Z,4.20
2018-08-30T11:20:40.934Z,4.30
2018-08-30T11:23:09.603Z,4.30
2018-08-30T11:25:38.282Z,3.80
2018-08-30T11:28:06.893Z,3.93
2018-08-30T11:30:35.542Z,4.67
2018-08-30T11:33:04.204Z,3.83
2018-08-30T11:35:32.854Z,3.80
2018-08-30T11:38:01.494Z,3.63
2018-08-30T11:40:30.153Z,3.83
2018-08-30T11:42:58.794Z,3.83
2018-08-30T11:45:27.460Z,3.63
2018-08-30T11:47:56.107Z,4.63
2018-08-30T11:50:24.766Z,4.10
2018-08-30T11:52:53.769Z,4.13
2018-08-30T11:55:22.430Z,3.40
2018-08-30T11:57:51.078Z,4.20
2018-08-30T12:00:19.721Z,3.87
2018-08-30T12:02:48.370Z,4.90
2018-08-30T12:05:17.026Z,4.13
2018-08-30T12:07:45.881Z,4.10
2018-08-30T12:10:14.798Z,3.97
2018-08-30T12:12:43.473Z,4.97
2018-08-30T12:15:12.123Z,4.33
2018-08-30T12:17:40.773Z,4.70
2018-08-30T12:20:09.418Z,4.20
2018-08-30T12:22:38.057Z,4.00
2018-08-30T12:25:06.709Z,4.97
2018-08-30T12:27:35.382Z,4.40
2018-08-30T12:30:04.327Z,4.30
2018-08-30T12:32:33.020Z,3.47
2018-08-30T12:35:01.725Z,3.93
2018-08-30T12:37:30.268Z,4.33
2018-08-30T12:39:59.049Z,4.77
2018-08-30T12:42:27.744Z,5.10
2018-08-30T12:44:56.351Z,4.03
2018-08-30T12:47:24.967Z,4.30
2018-08-30T12:49:53.641Z,3.67
2018-08-30T12:52:22.383Z,4.15
2018-08-30T12:54:50.998Z,5.03
2018-08-30T12:57:19.647Z,4.28
2018-08-30T12:59:48.388Z,4.37
2018-08-30T13:02:17.015Z,3.98
2018-08-30T13:04:45.838Z,4.37
2018-08-30T13:07:14.402Z,4.55
2018-08-30T13:09:43.091Z,3.52
2018-08-30T13:12:11.984Z,4.50
2018-08-30T13:14:40.449Z,4.67
2018-08-30T13:17:09.055Z,3.27
2018-08-30T13:19:37.941Z,4.22
2018-08-30T13:22:06.408Z,3.47
2018-08-30T13:24:35.094Z,3.72
2018-08-30T13:27:03.841Z,3.87
2018-08-30T13:29:32.406Z,4.00
2018-08-30T13:32:01.186Z,4.17
2018-08-30T13:34:29.777Z,3.87
2018-08-30T13:36:59.585Z,4.10
2018-08-30T13:39:28.224Z,3.50
2018-08-30T13:41:56.719Z,3.57
2018-08-30T13:44:25.407Z,4.43
2018-08-30T13:46:53.845Z,3.53
2018-08-30T13:49:22.583Z,3.47
2018-08-30T13:51:51.444Z,4.00
2018-08-30T13:54:19.988Z,3.47
2018-08-30T13:56:48.669Z,3.60
2018-08-30T13:59:17.473Z,14.07
2018-08-30T14:01:46.031Z,3.40
2018-08-30T14:04:14.378Z,2.97
2018-08-30T14:06:43.086Z,3.73
2018-08-30T14:09:11.787Z,3.90
2018-08-30T14:11:40.340Z,3.98
2018-08-30T14:14:09.036Z,2.80
2018-08-30T14:16:37.322Z,3.70
2018-08-30T14:19:06.164Z,3.42
2018-08-30T14:21:34.710Z,4.00
2018-08-30T14:24:03.386Z,3.75
2018-08-30T14:26:32.026Z,3.58
2018-08-30T14:29:00.743Z,3.50
2018-08-30T14:31:29.292Z,3.58
2018-08-30T14:33:57.933Z,3.60
2018-08-30T14:36:26.580Z,3.70
2018-08-30T14:38:55.423Z,2.83
2018-08-30T14:41:24.057Z,3.95
2018-08-30T14:43:52.642Z,3.80
2018-08-30T14:46:21.301Z,3.52
2018-08-30T14:48:50.009Z,3.40
2018-08-30T14:51:18.601Z,2.87
2018-08-30T14:53:52.178Z,3.13
2018-08-30T14:56:15.888Z,3.70
2018-08-30T14:58:44.517Z,4.03
2018-08-30T15:01:13.158Z,3.80
2018-08-30T15:03:41.842Z,3.50
2018-08-30T15:06:10.454Z,3.20
2018-08-30T15:08:39.126Z,3.60
2018-08-30T15:11:07.795Z,3.80
2018-08-30T15:13:36.450Z,3.50
2018-08-30T15:16:05.058Z,3.23
2018-08-30T15:18:33.720Z,4.40
2018-08-30T15:21:02.420Z,3.20
2018-08-30T15:23:31.061Z,3.10
2018-08-30T15:25:59.682Z,3.73
2018-08-30T15:28:28.354Z,3.20
2018-08-30T15:30:57.069Z,3.43
2018-08-30T15:33:25.734Z,3.10
2018-08-30T15:35:54.657Z,3.43
2018-08-30T15:38:23.317Z,3.67
2018-08-30T15:40:52.027Z,3.37
2018-08-30T15:43:20.706Z,3.07
2018-08-30T15:45:50.189Z,3.30
2018-08-30T15:48:18.932Z,4.00
2018-08-30T15:50:47.589Z,3.10
2018-08-30T15:53:16.403Z,3.40
2018-08-30T15:55:44.967Z,3.93
2018-08-30T15:58:13.661Z,3.43
2018-08-30T16:00:42.744Z,3.60
2018-08-30T16:03:11.414Z,3.67
2018-08-30T16:05:40.089Z,2.60
2018-08-30T16:08:08.689Z,3.47
2018-08-30T16:10:37.414Z,2.83
2018-08-30T16:13:06.133Z,3.00
2018-08-30T16:15:34.830Z,2.63
2018-08-30T16:18:03.502Z,3.10
2018-08-30T16:20:32.566Z,3.47
2018-08-30T16:23:39.408Z,3.30
2018-08-30T16:26:09.042Z,2.80
2018-08-30T16:28:37.749Z,3.10
2018-08-30T16:31:06.414Z,2.83
2018-08-30T16:33:35.040Z,3.63
2018-08-30T16:36:03.750Z,3.87
2018-08-30T16:38:32.370Z,2.80
2018-08-30T16:41:01.020Z,3.20
2018-08-30T16:43:29.766Z,2.40
2018-08-30T16:45:58.467Z,3.13
2018-08-30T16:48:27.589Z,3.97
2018-08-30T16:50:56.233Z,2.90
2018-08-30T16:53:24.918Z,3.07
2018-08-30T16:55:54.348Z,2.73
2018-08-30T16:58:23.366Z,2.63
2018-08-30T17:00:52.969Z,3.00
2018-08-30T17:03:21.642Z,2.77
2018-08-30T17:05:50.281Z,3.17
2018-08-30T17:08:20.156Z,2.67
2018-08-30T17:10:48.901Z,3.60
2018-08-30T17:13:17.549Z,2.43
2018-08-30T17:15:46.298Z,2.87
2018-08-30T17:18:14.952Z,2.17
2018-08-30T17:20:49.828Z,2.87
2018-08-30T17:23:18.536Z,2.80
2018-08-30T17:25:47.238Z,2.67
2018-08-30T17:28:15.937Z,3.40
2018-08-30T17:30:44.668Z,2.70
2018-08-30T17:33:13.349Z,2.90
2018-08-30T17:35:42.005Z,2.97
2018-08-30T17:38:10.699Z,2.57
2018-08-30T17:40:39.365Z,3.03
2018-08-30T17:43:08.024Z,2.60
2018-08-30T17:45:37.487Z,2.67
2018-08-30T17:48:06.110Z,3.17
2018-08-30T17:50:35.003Z,2.90
2018-08-30T17:53:03.429Z,2.33
2018-08-30T17:55:32.122Z,2.60
2018-08-30T17:58:01.125Z,2.67
2018-08-30T18:00:29.834Z,2.40
2018-08-30T18:02:58.514Z,3.10
2018-08-30T18:05:27.143Z,2.50
2018-08-30T18:07:55.859Z,2.93
2018-08-30T18:10:24.567Z,2.57
2018-08-30T18:12:53.141Z,2.73
2018-08-30T18:15:21.810Z,2.90
2018-08-30T18:17:50.489Z,3.00
2018-08-30T18:20:19.086Z,2.83
2018-08-30T18:22:47.960Z,3.73
2018-08-30T18:25:16.673Z,2.87
2018-08-30T18:27:45.389Z,2.93
2018-08-30T18:30:14.034Z,3.10
2018-08-30T18:32:42.799Z,3.37
2018-08-30T18:35:11.619Z,2.60
2018-08-30T18:37:40.432Z,3.20
2018-08-30T18:40:09.625Z,2.73
2018-08-30T18:42:38.554Z,2.97
2018-08-30T18:45:07.201Z,3.20
2018-08-30T18:47:36.262Z,2.80
2018-08-30T18:50:04.901Z,3.20
2018-08-30T18:52:33.752Z,2.80
2018-08-30T18:55:02.425Z,3.10
2018-08-30T18:57:31.190Z,2.80
2018-08-30T18:59:59.835Z,3.77
2018-08-30T19:02:28.473Z,2.77
2018-08-30T19:04:57.146Z,3.10
2018-08-30T19:07:25.861Z,2.80
2018-08-30T19:09:54.513Z,3.80
2018-08-30T19:12:23.275Z,2.73
2018-08-30T19:14:51.910Z,3.80
2018-08-30T19:17:26.145Z,4.00
2018-08-30T19:19:54.902Z,3.60
2018-08-30T19:22:23.623Z,2.90
2018-08-30T19:24:57.755Z,3.57
2018-08-30T19:27:26.542Z,2.97
2018-08-30T19:30:00.569Z,3.53
2018-08-30T19:32:29.251Z,3.60
2018-08-30T19:35:02.155Z,3.43
2018-08-30T19:37:30.802Z,3.23
2018-08-30T19:39:59.491Z,3.20
2018-08-30T19:42:28.282Z,2.93
2018-08-30T19:44:56.906Z,3.27
2018-08-30T19:47:25.574Z,3.60
2018-08-30T19:49:54.243Z,2.73
2018-08-30T19:52:22.922Z,12.60
2018-08-30T19:54:51.624Z,4.00
2018-08-30T19:57:20.274Z,3.40
2018-08-30T19:59:48.934Z,2.93
2018-08-30T20:02:17.614Z,3.50
2018-08-30T20:04:46.267Z,2.50
2018-08-30T20:07:14.906Z,2.37
2018-08-30T20:09:43.777Z,4.20
2018-08-30T20:12:12.430Z,3.80
2018-08-30T20:14:41.106Z,2.97
2018-08-30T20:17:10.014Z,3.80
2018-08-30T20:19:38.677Z,3.33
2018-08-30T20:22:09.202Z,3.30
2018-08-30T20:24:37.754Z,3.07
2018-08-30T20:27:06.438Z,3.00
2018-08-30T20:29:35.373Z,3.00
2018-08-30T20:32:04.074Z,3.03
2018-08-30T20:34:32.773Z,2.87
2018-08-30T20:37:01.677Z,2.73
2018-08-30T20:39:30.317Z,3.47
2018-08-30T20:41:59.013Z,2.97
2018-08-30T20:44:27.663Z,3.23
2018-08-30T20:46:56.319Z,3.10
2018-08-30T20:49:25.037Z,3.63
2018-08-30T20:51:53.689Z,3.00
2018-08-30T20:54:22.813Z,3.07
2018-08-30T20:56:51.413Z,3.10
2018-08-30T20:59:20.066Z,2.67
2018-08-30T21:01:48.737Z,3.30
2018-08-30T21:04:17.393Z,2.97
2018-08-30T21:06:46.065Z,3.00
2018-08-30T21:09:14.778Z,3.53
2018-08-30T21:11:43.498Z,3.07
2018-08-30T21:14:12.153Z,3.07
2018-08-30T21:16:40.850Z,3.77
2018-08-30T21:19:09.546Z,3.30
2018-08-30T21:21:38.346Z,2.97
2018-08-30T21:24:07.068Z,3.40
2018-08-30T21:26:35.781Z,3.13
2018-08-30T21:29:04.559Z,3.70
2018-08-30T21:31:33.287Z,3.17
2018-08-30T21:34:02.103Z,3.73
2018-08-30T21:36:30.785Z,2.80
2018-08-30T21:38:59.503Z,3.13
2018-08-30T21:41:28.177Z,3.47
2018-08-30T21:43:56.866Z,2.83
2018-08-30T21:46:25.577Z,3.30
2018-08-30T21:48:54.384Z,3.50
2018-08-30T21:51:23.083Z,3.53
2018-08-30T21:53:51.729Z,3.33
2018-08-30T21:56:20.478Z,4.07
2018-08-30T21:58:49.178Z,3.53
2018-08-30T22:01:17.873Z,3.47
2018-08-30T22:03:46.514Z,3.30
2018-08-30T22:06:15.166Z,3.33
2018-08-30T22:08:43.809Z,2.70
2018-08-30T22:11:12.499Z,2.90
2018-08-30T22:13:41.168Z,2.93
2018-08-30T22:16:09.809Z,2.80
2018-08-30T22:18:38.461Z,3.27
2018-08-30T22:21:07.109Z,2.90
2018-08-30T22:23:35.781Z,3.03
2018-08-30T22:26:04.518Z,2.37
2018-08-30T22:28:33.181Z,3.00
2018-08-30T22:31:01.821Z,2.37
2018-08-30T22:33:30.469Z,1.70
2018-08-30T22:35:59.117Z,2.93
2018-08-30T22:38:27.865Z,2.70
2018-08-30T22:40:56.510Z,2.93
2018-08-30T22:43:25.181Z,2.10
2018-08-30T22:45:53.813Z,2.63
2018-08-30T22:48:22.462Z,2.57
2018-08-30T22:50:51.178Z,2.40
2018-08-30T22:53:19.822Z,2.30
2018-08-30T22:55:48.558Z,2.13
2018-08-30T22:58:19.495Z,2.37
2018-08-30T23:00:48.129Z,2.30
2018-08-30T23:03:16.798Z,2.27
2018-08-30T23:05:45.466Z,2.30
2018-08-30T23:08:14.134Z,2.63
2018-08-30T23:10:42.794Z,3.20
2018-08-30T23:13:11.451Z,2.60
2018-08-30T23:15:40.125Z,2.63
2018-08-30T23:18:11.749Z,2.60
2018-08-30T23:20:44.560Z,2.10
2018-08-30T23:23:13.281Z,2.90
2018-08-30T23:25:41.933Z,3.37
2018-08-30T23:28:10.590Z,2.83
2018-08-30T23:30:39.349Z,3.17
2018-08-30T23:33:07.899Z,2.70
2018-08-30T23:35:38.660Z,2.57
2018-08-30T23:38:07.586Z,2.90
2018-08-30T23:40:38.433Z,2.43
2018-08-30T23:43:07.053Z,3.37
2018-08-30T23:45:40.264Z,2.90
2018-08-30T23:48:09.085Z,3.00
2018-08-30T23:50:38.568Z,2.90
2018-08-30T23:53:07.207Z,2.83
2018-08-30T23:55:35.854Z,3.20
2018-08-30T23:58:15.993Z,3.20
